This is the latest recevied weather packets stored in our database for station/object Oberstadn. If no packets are shown the sender has not sent any weather packets the latest 1 day(s).
| Time | Temp. | Humidity | Pressure | Rain* | Wind** | Luminosity | Snow |
|---|---|---|---|---|---|---|---|
| 1836273905 | 10.56° C | 93% | 1022.5 hPa | 0 mm | 0 m/s | - | - |
| 1778016731 | 12.22° C | 81% | 1009.1 hPa | 0 mm | 4.47 m/s, 249° | - | - |
| 1778014935 | 12.78° C | 79% | 1009.1 hPa | 0 mm | 3.13 m/s, 247° | - | - |
| 1778013129 | 13.33° C | 78% | 1008.7 hPa | 0 mm | 3.58 m/s, 235° | - | - |
| 1778011330 | 13.89° C | 77% | 1009 hPa | 0 mm | 4.47 m/s, 194° | - | - |
| 1778009529 | 14.44° C | 77% | 1008.8 hPa | 0 mm | 4.02 m/s, 195° | - | - |
| 1778007735 | 15.56° C | 75% | 1008.2 hPa | 0 mm | 6.26 m/s, 236° | - | - |
| 1778005932 | 16.11° C | 69% | 1007.7 hPa | 0 mm | 4.92 m/s, 202° | - | - |
| 1778004131 | 16.67° C | 64% | 1007.3 hPa | 0 mm | 4.47 m/s, 275° | - | - |
| 1778002330 | 17.78° C | 62% | 1007.1 hPa | 0 mm | 2.24 m/s, 202° | - | - |
| 1778000530 | 18.33° C | 60% | 1007 hPa | 0 mm | 2.68 m/s, 234° | - | - |
| 1777998731 | 18.89° C | 58% | 1007 hPa | 0 mm | 3.13 m/s, 262° | - | - |
| 1777995130 | 16.67° C | 72% | 1007.1 hPa | 0 mm | 0.89 m/s, 355° | - | - |
| 1777993336 | 16.67° C | 71% | 1007 hPa | 0 mm | 3.13 m/s, 323° | - | - |
| 1777991532 | 16.11° C | 74% | 1007.3 hPa | 0 mm | 4.47 m/s, 286° | - | - |
| 1777989730 | 16.11° C | 75% | 1007.6 hPa | 0 mm | 4.47 m/s, 298° | - | - |
| 1777987930 | 16.67° C | 72% | 1007.5 hPa | 0 mm | 2.24 m/s, 314° | - | - |
| 1777986130 | 17.22° C | 71% | 1007.8 hPa | 0 mm | 4.47 m/s, 290° | - | - |
| 1777984330 | 17.78° C | 70% | 1007.8 hPa | 0 mm | 3.58 m/s, 254° | - | - |
| 1777982530 | 18.33° C | 64% | 1008 hPa | 0 mm | 3.13 m/s, 238° | - | - |
| 1777980730 | 18.89° C | 64% | 1008 hPa | 0 mm | 4.47 m/s, 186° | - | - |
| 1777978931 | 18.89° C | 63% | 1007.7 hPa | 0 mm | 3.58 m/s, 248° | - | - |
| 1777977131 | 18.89° C | 61% | 1007.8 hPa | 0 mm | 3.13 m/s, 251° | - | - |
| 1777975332 | 18.33° C | 62% | 1008 hPa | 0 mm | 2.24 m/s, 203° | - | - |
| 1777973532 | 18.33° C | 64% | 1008.1 hPa | 0 mm | 1.79 m/s, 223° | - | - |
* Rain since midnight (hover to see other rain measurements)
** Current wind speed in m/s (hover to see current wind gust speed)